createdAt,value
2023-02-09T00:01:14.895Z,100846.88
2023-02-09T00:03:42.356Z,100863.13
2023-02-09T00:06:11.715Z,100856.13
2023-02-09T00:08:38.339Z,100848.22
2023-02-09T00:11:18.005Z,100835.47
2023-02-09T00:13:44.663Z,100799.16
2023-02-09T00:16:11.699Z,100832.00
2023-02-09T00:18:41.455Z,100817.31
2023-02-09T00:21:11.155Z,100842.16
2023-02-09T00:23:40.696Z,100829.16
2023-02-09T00:28:29.964Z,100839.66
2023-02-09T00:30:56.869Z,100843.13
2023-02-09T00:33:23.451Z,100802.41
2023-02-09T00:35:50.111Z,100836.97
2023-02-09T00:38:16.720Z,100789.50
2023-02-09T00:40:44.017Z,100829.13
2023-02-09T00:43:11.955Z,100829.13
2023-02-09T00:45:38.608Z,100793.59
2023-02-09T00:48:05.426Z,100807.47
2023-02-09T00:50:32.165Z,100824.75
2023-02-09T00:52:58.783Z,100810.88
2023-02-09T00:55:25.566Z,100809.81
2023-02-09T00:57:52.128Z,100816.88
2023-02-09T01:00:20.418Z,100785.72
2023-02-09T01:02:47.619Z,100804.59
2023-02-09T01:05:14.334Z,100741.47
2023-02-09T01:07:40.948Z,100758.09
2023-02-09T01:10:08.436Z,100778.66
2023-02-09T01:12:35.210Z,100767.31
2023-02-09T01:15:04.071Z,100795.88
2023-02-09T01:17:30.598Z,100788.84
2023-02-09T01:19:57.327Z,100767.28
2023-02-09T01:22:23.901Z,100774.16
2023-02-09T01:24:50.794Z,100781.91
2023-02-09T01:27:18.345Z,100745.69
2023-02-09T01:29:45.483Z,100754.28
2023-02-09T01:32:12.206Z,100774.94
2023-02-09T01:34:39.470Z,100785.47
2023-02-09T01:39:26.874Z,100754.28
2023-02-09T01:41:54.102Z,100753.38
2023-02-09T01:44:20.570Z,100775.00
2023-02-09T01:46:47.506Z,100751.75
2023-02-09T01:49:23.498Z,100761.09
2023-02-09T01:51:55.834Z,100764.50
2023-02-09T01:54:29.258Z,100759.31
2023-02-09T01:57:02.360Z,100754.94
2023-02-09T01:59:29.989Z,100754.94
2023-02-09T02:01:56.631Z,100680.66
2023-02-09T02:04:23.361Z,100754.94
2023-02-09T02:06:54.618Z,100744.69
2023-02-09T02:09:21.547Z,100754.16
2023-02-09T02:11:48.876Z,100740.31
2023-02-09T02:14:30.664Z,100738.41
2023-02-09T02:17:12.165Z,100744.50
2023-02-09T02:19:57.184Z,100741.03
2023-02-09T02:22:42.791Z,100745.53
2023-02-09T02:25:53.711Z,100745.53
2023-02-09T02:28:26.227Z,100732.53
2023-02-09T02:31:03.818Z,100703.91
2023-02-09T02:33:54.700Z,100711.81
2023-02-09T02:36:31.043Z,100740.38
2023-02-09T02:39:11.826Z,100727.38
2023-02-09T02:42:13.510Z,100732.66
2023-02-09T02:44:43.465Z,100725.81
2023-02-09T02:47:17.195Z,100721.31
2023-02-09T02:49:57.857Z,100743.13
2023-02-09T02:52:24.640Z,100723.06
2023-02-09T02:55:00.700Z,100690.28
2023-02-09T02:57:32.570Z,100723.13
2023-02-09T03:00:12.065Z,100731.88
2023-02-09T03:02:49.090Z,100723.25
2023-02-09T03:05:17.888Z,100716.91
2023-02-09T03:07:44.690Z,100711.75
2023-02-09T03:10:27.398Z,100720.50
2023-02-09T03:13:01.557Z,100698.09
2023-02-09T03:15:55.815Z,100717.91
2023-02-09T03:18:40.734Z,100710.97
2023-02-09T03:21:41.562Z,100712.78
2023-02-09T03:24:29.259Z,100711.91
2023-02-09T03:27:02.600Z,100698.75
2023-02-09T03:29:31.434Z,100697.06
2023-02-09T03:31:58.704Z,100705.81
2023-02-09T03:34:27.280Z,100690.28
2023-02-09T03:36:56.112Z,100695.50
2023-02-09T03:39:23.247Z,100679.91
2023-02-09T03:41:49.806Z,100687.66
2023-02-09T03:44:28.669Z,100701.56
2023-02-09T03:46:58.399Z,100617.72
2023-02-09T03:49:27.782Z,100650.56
2023-02-09T03:51:54.894Z,100682.34
2023-02-09T03:54:21.693Z,100672.75
2023-02-09T03:56:48.526Z,100639.91
2023-02-09T03:59:15.056Z,100676.25
2023-02-09T04:01:41.727Z,100672.75
2023-02-09T04:04:08.697Z,100641.81
2023-02-09T04:06:35.986Z,100679.84
2023-02-09T04:09:03.963Z,100654.78
2023-02-09T04:11:31.051Z,100686.03
2023-02-09T04:13:57.812Z,100640.56
2023-02-09T04:16:24.825Z,100624.03
2023-02-09T04:18:52.373Z,100696.63
2023-02-09T04:21:19.088Z,100694.94
2023-02-09T04:23:45.787Z,100653.44
2023-02-09T04:26:12.935Z,100676.81
2023-02-09T04:28:39.465Z,100675.00
2023-02-09T04:31:06.144Z,100656.84
2023-02-09T04:33:32.934Z,100651.66
2023-02-09T04:35:59.832Z,100681.06
2023-02-09T04:38:26.646Z,100685.47
2023-02-09T04:40:55.074Z,100674.09
2023-02-09T04:43:21.805Z,100671.47
2023-02-09T04:45:48.578Z,100648.97
2023-02-09T04:48:17.784Z,100648.19
2023-02-09T04:50:44.950Z,100651.69
2023-02-09T04:53:12.538Z,100662.06
2023-02-09T04:55:43.759Z,100668.09
2023-02-09T04:58:34.594Z,100665.53
2023-02-09T05:01:02.656Z,100661.28
2023-02-09T05:03:29.590Z,100651.03
2023-02-09T05:06:05.982Z,100661.22
2023-02-09T05:08:32.996Z,100633.56
2023-02-09T05:10:59.951Z,100642.31
2023-02-09T05:13:27.156Z,100662.19
2023-02-09T05:15:53.860Z,100657.03
2023-02-09T05:18:21.075Z,100653.59
2023-02-09T05:20:48.872Z,100652.66
2023-02-09T05:23:16.578Z,100649.13
2023-02-09T05:25:43.146Z,100616.31
2023-02-09T05:28:09.986Z,100625.78
2023-02-09T05:30:37.538Z,100631.84
2023-02-09T05:33:04.595Z,100647.44
2023-02-09T05:35:31.370Z,100643.97
2023-02-09T05:37:58.032Z,100625.00
2023-02-09T05:40:24.793Z,100573.22
2023-02-09T05:42:51.492Z,100580.16
2023-02-09T05:45:18.525Z,100651.91
2023-02-09T05:47:45.706Z,100602.66
2023-02-09T05:50:12.281Z,100632.78
2023-02-09T05:52:38.854Z,100645.09
2023-02-09T05:55:05.659Z,100656.31
2023-02-09T05:57:32.304Z,100614.97
2023-02-09T05:59:58.826Z,100602.00
2023-02-09T06:02:25.508Z,100658.19
2023-02-09T06:04:52.163Z,100655.56
2023-02-09T06:07:18.828Z,100659.09
2023-02-09T06:09:45.407Z,100661.72
2023-02-09T06:12:14.485Z,100667.00
2023-02-09T06:14:40.992Z,100619.47
2023-02-09T06:17:07.619Z,100651.25
2023-02-09T06:19:34.200Z,100654.78
2023-02-09T06:22:00.939Z,100653.88
2023-02-09T06:24:27.583Z,100646.16
2023-02-09T06:26:56.800Z,100621.06
2023-02-09T06:29:23.449Z,100633.22
2023-02-09T06:31:50.317Z,100653.88
2023-02-09T06:36:42.069Z,100582.19
2023-02-09T06:39:10.167Z,100664.38
2023-02-09T06:41:37.192Z,100590.06
2023-02-09T06:44:04.344Z,100654.72
2023-02-09T06:46:31.051Z,100631.50
2023-02-09T06:48:59.554Z,100663.41
2023-02-09T06:51:26.684Z,100663.41
2023-02-09T06:53:54.778Z,100663.38
2023-02-09T06:56:21.550Z,100612.41
2023-02-09T06:58:48.270Z,100650.38
2023-02-09T07:01:18.562Z,100640.91
2023-02-09T07:03:45.271Z,100670.41
2023-02-09T07:06:16.676Z,100650.25
2023-02-09T07:08:44.500Z,100652.88
2023-02-09T07:11:13.923Z,100586.31
2023-02-09T07:13:40.863Z,100652.22
2023-02-09T07:16:09.221Z,100654.72
2023-02-09T07:18:36.464Z,100600.19
2023-02-09T07:21:06.773Z,100661.69
2023-02-09T07:23:36.743Z,100653.00
2023-02-09T07:26:10.397Z,100577.94
2023-02-09T07:28:37.439Z,100638.44
2023-02-09T07:31:10.305Z,100645.28
2023-02-09T07:33:37.284Z,100650.47
2023-02-09T07:36:06.164Z,100646.28
2023-02-09T07:38:33.650Z,100649.63
2023-02-09T07:43:22.088Z,100652.22
2023-02-09T07:45:48.859Z,100606.56
2023-02-09T07:48:15.413Z,100575.06
2023-02-09T07:50:48.941Z,100626.06
2023-02-09T07:53:15.652Z,100571.50
2023-02-09T07:55:42.230Z,100644.88
2023-02-09T07:58:08.858Z,100608.66
2023-02-09T08:00:35.505Z,100601.66
2023-02-09T08:03:04.493Z,100585.25
2023-02-09T08:05:37.314Z,100614.56
2023-02-09T08:08:04.103Z,100642.13
2023-02-09T08:10:30.747Z,100605.91
2023-02-09T08:12:59.790Z,100648.16
2023-02-09T08:15:37.760Z,100641.06
2023-02-09T08:20:35.006Z,100629.75
2023-02-09T08:23:07.898Z,100558.22
2023-02-09T08:25:35.996Z,100636.50
2023-02-09T08:28:03.808Z,100636.47
2023-02-09T08:30:30.541Z,100632.03
2023-02-09T08:32:57.219Z,100600.00
2023-02-09T08:35:23.866Z,100633.69
2023-02-09T08:37:50.546Z,100630.13
2023-02-09T08:40:17.218Z,100628.50
2023-02-09T08:42:43.853Z,100630.00
2023-02-09T08:45:10.799Z,100547.97
2023-02-09T08:47:37.395Z,100630.78
2023-02-09T08:50:04.285Z,100580.75
2023-02-09T08:52:30.852Z,100578.09
2023-02-09T08:54:57.628Z,100636.81
2023-02-09T08:57:31.925Z,100633.28
2023-02-09T09:00:05.810Z,100597.81
2023-02-09T09:02:33.699Z,100593.56
2023-02-09T09:05:00.335Z,100593.50
2023-02-09T09:07:26.929Z,100632.28
2023-02-09T09:09:56.487Z,100629.75
2023-02-09T09:12:23.080Z,100627.81
2023-02-09T09:14:49.689Z,100632.19
2023-02-09T09:17:16.218Z,100618.44
2023-02-09T09:19:43.071Z,100624.44
2023-02-09T09:22:09.620Z,100639.25
2023-02-09T09:24:40.570Z,100646.06
2023-02-09T09:27:08.989Z,100650.44
2023-02-09T09:29:36.104Z,100649.53
2023-02-09T09:32:03.321Z,100660.03
2023-02-09T09:34:30.053Z,100654.72
2023-02-09T09:36:56.805Z,100641.63
2023-02-09T09:39:24.381Z,100642.34
2023-02-09T09:41:55.179Z,100647.59
2023-02-09T09:44:32.874Z,100641.38
2023-02-09T09:47:07.118Z,100644.81
2023-02-09T09:49:37.942Z,100614.47
2023-02-09T09:52:21.859Z,100616.19
2023-02-09T09:54:48.698Z,100591.91
2023-02-09T09:57:25.843Z,100623.72
2023-02-09T09:59:54.276Z,100617.56
2023-02-09T10:02:29.421Z,100635.75
2023-02-09T10:05:22.615Z,100624.28
2023-02-09T10:08:12.781Z,100630.41
2023-02-09T10:11:04.759Z,100629.44
2023-02-09T10:13:41.040Z,100626.81
2023-02-09T10:16:38.012Z,100629.38
2023-02-09T10:19:17.781Z,100629.38
2023-02-09T10:21:44.794Z,100611.09
2023-02-09T10:24:22.013Z,100617.84
2023-02-09T10:27:05.578Z,100613.44
2023-02-09T10:29:32.235Z,100595.19
2023-02-09T10:32:14.927Z,100590.41
2023-02-09T10:34:46.937Z,100590.41
2023-02-09T10:37:23.959Z,100574.72
2023-02-09T10:40:26.798Z,100578.91
2023-02-09T10:42:57.593Z,100579.75
2023-02-09T10:45:45.448Z,100572.69
2023-02-09T10:48:12.183Z,100565.66
2023-02-09T10:50:59.878Z,100555.38
2023-02-09T10:53:35.002Z,100560.25
2023-02-09T10:56:04.503Z,100567.25
2023-02-09T10:58:34.166Z,100565.50
2023-02-09T11:01:09.888Z,100561.97
2023-02-09T11:03:46.257Z,100561.97
2023-02-09T11:06:19.464Z,100557.47
2023-02-09T11:08:52.477Z,100516.81
2023-02-09T11:13:40.747Z,100535.47
2023-02-09T11:16:40.348Z,100501.75
2023-02-09T11:19:25.981Z,100528.41
2023-02-09T11:22:28.940Z,100517.88
2023-02-09T11:25:01.962Z,100515.22
2023-02-09T11:27:38.871Z,100508.34
2023-02-09T11:30:46.513Z,100516.97
2023-02-09T11:33:31.074Z,100515.22
2023-02-09T11:36:10.992Z,100512.44
2023-02-09T11:38:51.575Z,100501.84
2023-02-09T11:41:47.090Z,100478.31
2023-02-09T11:44:56.150Z,100503.53
2023-02-09T11:47:30.943Z,100474.91
2023-02-09T11:50:01.960Z,100495.66
2023-02-09T11:52:35.765Z,100479.84
2023-02-09T11:55:18.433Z,100493.56
2023-02-09T11:57:48.763Z,100490.03
2023-02-09T12:00:19.953Z,100480.44
2023-02-09T12:02:53.543Z,100480.28
2023-02-09T12:05:22.579Z,100480.16
2023-02-09T12:08:22.398Z,100477.53
2023-02-09T12:11:23.567Z,100465.22
2023-02-09T12:13:52.965Z,100460.72
2023-02-09T12:16:26.718Z,100450.22
2023-02-09T12:18:55.364Z,100451.78
2023-02-09T12:21:32.368Z,100443.00
2023-02-09T12:24:00.737Z,100444.63
2023-02-09T12:26:40.528Z,100442.81
2023-02-09T12:29:30.254Z,100424.31
2023-02-09T12:32:08.597Z,100421.63
2023-02-09T12:34:35.309Z,100417.19
2023-02-09T12:37:13.781Z,100410.09
2023-02-09T12:40:10.077Z,100413.56
2023-02-09T12:42:45.112Z,100409.25
2023-02-09T12:45:33.547Z,100408.19
2023-02-09T12:48:09.491Z,100410.78
2023-02-09T12:50:42.199Z,100406.31
2023-02-09T12:53:33.258Z,100394.19
2023-02-09T12:56:04.449Z,100400.97
2023-02-09T12:58:43.609Z,100405.25
2023-02-09T13:01:11.800Z,100392.94
2023-02-09T13:03:56.303Z,100387.59
2023-02-09T13:06:48.910Z,100388.41
2023-02-09T13:09:42.728Z,100391.06
2023-02-09T13:12:20.038Z,100391.00
2023-02-09T13:14:50.213Z,100389.13
2023-02-09T13:18:06.730Z,100390.00
2023-02-09T13:21:20.826Z,100393.50
2023-02-09T13:24:08.716Z,100361.63
2023-02-09T13:29:21.504Z,100379.38
2023-02-09T13:31:56.329Z,100372.38
2023-02-09T13:34:55.146Z,100373.19
2023-02-09T13:37:40.032Z,100370.56
2023-02-09T13:40:18.031Z,100367.06
2023-02-09T13:43:12.954Z,100369.66
2023-02-09T13:45:52.508Z,100367.06
2023-02-09T13:48:29.963Z,100370.56
2023-02-09T13:51:00.118Z,100361.78
2023-02-09T13:53:28.826Z,100368.75
2023-02-09T13:56:00.324Z,100359.94
2023-02-09T13:58:38.620Z,100347.78
2023-02-09T14:01:09.097Z,100347.63
2023-02-09T14:03:56.721Z,100339.69
2023-02-09T14:06:45.268Z,100339.69
2023-02-09T14:09:19.991Z,100342.34
2023-02-09T14:12:03.284Z,100339.69
2023-02-09T14:14:57.912Z,100337.91
2023-02-09T14:17:38.712Z,100337.06
2023-02-09T14:20:20.431Z,100335.25
2023-02-09T14:22:56.123Z,100288.84
2023-02-09T14:25:24.792Z,100331.94
2023-02-09T14:27:51.510Z,100332.63
2023-02-09T14:30:23.191Z,100337.06
2023-02-09T14:32:58.560Z,100330.00
2023-02-09T14:35:29.185Z,100336.19
2023-02-09T14:38:02.388Z,100327.41
2023-02-09T14:43:04.096Z,100316.94
2023-02-09T14:45:46.444Z,100306.41
2023-02-09T14:48:16.423Z,100308.13
2023-02-09T14:50:43.056Z,100314.28
2023-02-09T14:53:13.864Z,100304.66
2023-02-09T14:55:40.668Z,100301.13
2023-02-09T14:58:12.683Z,100287.56
2023-02-09T15:00:39.283Z,100302.03
2023-02-09T15:03:05.942Z,100303.00
2023-02-09T15:05:32.625Z,100223.81
2023-02-09T15:08:05.752Z,100284.03
2023-02-09T15:10:35.349Z,100302.13
2023-02-09T15:13:05.128Z,100294.19
2023-02-09T15:15:33.319Z,100257.88
2023-02-09T15:18:00.509Z,100278.59
2023-02-09T15:20:28.473Z,100270.13
2023-02-09T15:22:55.575Z,100280.47
2023-02-09T15:25:24.197Z,100287.34
2023-02-09T15:27:56.060Z,100291.69
2023-02-09T15:30:36.022Z,100264.84
2023-02-09T15:33:02.749Z,100290.88
2023-02-09T15:35:29.840Z,100254.53
2023-02-09T15:37:59.614Z,100283.09
2023-02-09T15:40:45.017Z,100278.75
2023-02-09T15:43:36.069Z,100278.78
2023-02-09T15:46:21.501Z,100290.31
2023-02-09T15:48:48.376Z,100287.75
2023-02-09T15:51:15.735Z,100256.75
2023-02-09T15:53:42.965Z,100255.03
2023-02-09T15:56:11.598Z,100275.78
2023-02-09T15:58:41.710Z,100284.31
2023-02-09T16:01:12.970Z,100290.56
2023-02-09T16:03:39.846Z,100225.19
2023-02-09T16:06:26.897Z,100283.53
2023-02-09T16:08:53.972Z,100278.28
2023-02-09T16:11:24.692Z,100266.81
2023-02-09T16:13:51.327Z,100266.03
2023-02-09T16:16:18.143Z,100274.81
2023-02-09T16:18:46.430Z,100273.06
2023-02-09T16:21:28.032Z,100266.03
2023-02-09T16:23:57.118Z,100271.34
2023-02-09T16:26:24.799Z,100260.81
2023-02-09T16:28:53.749Z,100274.88
2023-02-09T16:31:23.930Z,100260.81
2023-02-09T16:33:51.301Z,100256.47
2023-02-09T16:36:20.974Z,100252.88
2023-02-09T16:38:48.058Z,100246.34
2023-02-09T16:41:35.680Z,100267.03
2023-02-09T16:44:20.711Z,100249.75
2023-02-09T16:46:49.569Z,100250.56
2023-02-09T16:49:26.931Z,100261.91
2023-02-09T16:51:56.569Z,100269.69
2023-02-09T16:54:23.436Z,100263.56
2023-02-09T16:56:54.654Z,100242.03
2023-02-09T16:59:21.676Z,100253.94
2023-02-09T17:01:48.823Z,100255.72
2023-02-09T17:04:15.587Z,100265.41
2023-02-09T17:06:42.313Z,100240.59
2023-02-09T17:09:17.855Z,100273.38
2023-02-09T17:11:44.542Z,100271.59
2023-02-09T17:14:12.330Z,100271.66
2023-02-09T17:16:43.257Z,100268.19
2023-02-09T17:19:15.440Z,100272.56
2023-02-09T17:21:42.365Z,100247.56
2023-02-09T17:24:15.786Z,100266.44
2023-02-09T17:26:43.062Z,100268.22
2023-02-09T17:29:10.293Z,100251.16
2023-02-09T17:31:52.753Z,100272.63
2023-02-09T17:34:21.924Z,100277.97
2023-02-09T17:36:48.539Z,100279.72
2023-02-09T17:39:16.735Z,100280.56
2023-02-09T17:41:45.224Z,100270.22
2023-02-09T17:44:31.616Z,100278.75
2023-02-09T17:47:04.362Z,100278.75
2023-02-09T17:49:32.094Z,100276.09
2023-02-09T17:51:58.748Z,100276.94
2023-02-09T17:54:27.707Z,100267.22
2023-02-09T17:56:57.399Z,100266.31
2023-02-09T17:59:23.962Z,100255.72
2023-02-09T18:01:50.988Z,100261.00
2023-02-09T18:04:20.385Z,100254.00
2023-02-09T18:06:47.119Z,100247.84
2023-02-09T18:09:14.737Z,100244.38
2023-02-09T18:11:56.904Z,100229.59
2023-02-09T18:14:24.537Z,100216.66
2023-02-09T18:16:52.037Z,100234.81
2023-02-09T18:19:18.717Z,100231.28
2023-02-09T18:21:55.778Z,100234.00
2023-02-09T18:24:24.643Z,100228.75
2023-02-09T18:26:51.305Z,100215.75
2023-02-09T18:29:20.150Z,100213.34
2023-02-09T18:31:47.036Z,100220.19
2023-02-09T18:34:17.419Z,100217.88
2023-02-09T18:36:44.035Z,100214.44
2023-02-09T18:39:10.678Z,100202.38
2023-02-09T18:41:37.439Z,100210.84
2023-02-09T18:44:04.090Z,100206.66
2023-02-09T18:46:31.055Z,100195.53
2023-02-09T18:48:57.664Z,100198.31
2023-02-09T18:51:25.065Z,100202.53
2023-02-09T18:56:22.856Z,100213.88
2023-02-09T18:58:50.374Z,100216.53
2023-02-09T19:01:20.171Z,100207.00
2023-02-09T19:03:50.272Z,100220.19
2023-02-09T19:06:17.543Z,100207.38
2023-02-09T19:08:44.140Z,100179.16
2023-02-09T19:11:15.764Z,100215.13
2023-02-09T19:13:42.451Z,100213.44
2023-02-09T19:16:13.469Z,100205.56
2023-02-09T19:18:40.705Z,100195.09
2023-02-09T19:21:07.905Z,100182.22
2023-02-09T19:23:35.526Z,100167.56
2023-02-09T19:26:05.885Z,100177.72
2023-02-09T19:28:32.643Z,100185.22
2023-02-09T19:30:59.471Z,100175.66
2023-02-09T19:33:26.361Z,100164.31
2023-02-09T19:35:57.648Z,100171.03
2023-02-09T19:38:25.684Z,100155.56
2023-02-09T19:41:08.573Z,100166.53
2023-02-09T19:43:39.451Z,100150.22
2023-02-09T19:46:06.709Z,100170.00
2023-02-09T19:48:33.447Z,100170.78
2023-02-09T19:51:00.496Z,100169.91
2023-02-09T19:53:27.455Z,100174.28
2023-02-09T19:55:54.654Z,100154.47
2023-02-09T19:58:21.929Z,100163.06
2023-02-09T20:00:50.052Z,100136.19
2023-02-09T20:03:17.793Z,100157.47
2023-02-09T20:05:45.346Z,100163.63
2023-02-09T20:08:15.586Z,100143.69
2023-02-09T20:10:44.011Z,100161.00
2023-02-09T20:13:13.000Z,100151.53
2023-02-09T20:15:43.924Z,100157.41
2023-02-09T20:18:13.609Z,100146.19
2023-02-09T20:20:43.106Z,100148.59
2023-02-09T20:23:10.407Z,100157.38
2023-02-09T20:25:42.950Z,100153.25
2023-02-09T20:28:13.548Z,100152.13
2023-02-09T20:30:42.088Z,100129.81
2023-02-09T20:33:10.181Z,100153.13
2023-02-09T20:35:40.882Z,100143.56
2023-02-09T20:38:08.330Z,100138.41
2023-02-09T20:40:35.499Z,100146.34
2023-02-09T20:43:20.919Z,100146.44
2023-02-09T20:46:06.099Z,100142.16
2023-02-09T20:48:32.771Z,100147.56
2023-02-09T20:50:59.446Z,100126.94
2023-02-09T20:53:26.688Z,100137.44
2023-02-09T20:55:53.731Z,100116.94
2023-02-09T20:58:20.771Z,100132.25
2023-02-09T21:00:48.030Z,100123.69
2023-02-09T21:03:18.129Z,100139.16
2023-02-09T21:05:44.916Z,100116.69
2023-02-09T21:08:11.506Z,100133.13
2023-02-09T21:10:39.178Z,100117.56
2023-02-09T21:13:07.193Z,100116.69
2023-02-09T21:15:39.012Z,100119.09
2023-02-09T21:18:06.811Z,100120.81
2023-02-09T21:20:36.962Z,100119.03
2023-02-09T21:23:05.753Z,100089.09
2023-02-09T21:25:32.553Z,100117.44
2023-02-09T21:27:59.727Z,100123.34
2023-02-09T21:30:27.162Z,100118.31
2023-02-09T21:32:55.938Z,100093.22
2023-02-09T21:35:22.888Z,100132.00
2023-02-09T21:37:49.863Z,100124.19
2023-02-09T21:40:16.627Z,100127.47
2023-02-09T21:42:43.607Z,100094.81
2023-02-09T21:45:10.183Z,100129.22
2023-02-09T21:47:38.685Z,100094.81
2023-02-09T21:50:08.886Z,100118.84
2023-02-09T21:52:38.155Z,100126.63
2023-02-09T21:55:06.179Z,100109.53
2023-02-09T21:57:32.861Z,100062.31
2023-02-09T22:00:05.361Z,100134.41
2023-02-09T22:02:34.574Z,100131.09
2023-02-09T22:05:01.905Z,100117.50
2023-02-09T22:07:30.302Z,100137.19
2023-02-09T22:09:58.214Z,100131.00
2023-02-09T22:12:36.189Z,100137.13
2023-02-09T22:15:09.844Z,100108.00
2023-02-09T22:17:37.559Z,100141.53
2023-02-09T22:20:04.857Z,100077.94
2023-02-09T22:22:31.580Z,100128.38
2023-02-09T22:24:59.040Z,100121.38
2023-02-09T22:27:26.494Z,100117.81
2023-02-09T22:29:53.075Z,100023.44
2023-02-09T22:32:20.447Z,100098.16
2023-02-09T22:34:47.027Z,100131.03
2023-02-09T22:37:13.766Z,100120.00
2023-02-09T22:41:57.982Z,100133.97
2023-02-09T22:44:26.636Z,100141.66
2023-02-09T22:46:53.572Z,100122.84
2023-02-09T22:49:21.048Z,100139.94
2023-02-09T22:51:49.634Z,100146.06
2023-02-09T22:54:18.113Z,100132.94
2023-02-09T22:56:44.757Z,100129.44
2023-02-09T22:59:13.200Z,100135.63
2023-02-09T23:01:40.103Z,100128.59
2023-02-09T23:04:06.902Z,100137.44
2023-02-09T23:06:35.217Z,100139.19
2023-02-09T23:09:05.564Z,100140.06
2023-02-09T23:11:32.519Z,100143.59
2023-02-09T23:14:09.206Z,100142.75
2023-02-09T23:16:38.428Z,100132.50
2023-02-09T23:19:07.604Z,100130.22
2023-02-09T23:21:37.459Z,100148.06
2023-02-09T23:24:05.027Z,100147.22
2023-02-09T23:26:33.255Z,100078.50
2023-02-09T23:29:02.546Z,100140.22
2023-02-09T23:31:29.660Z,100101.41
2023-02-09T23:33:56.549Z,100105.63
2023-02-09T23:36:26.102Z,100129.75
2023-02-09T23:38:54.731Z,100103.19
2023-02-09T23:41:22.226Z,100123.31
2023-02-09T23:43:49.373Z,100139.41
2023-02-09T23:46:18.938Z,100135.94
2023-02-09T23:48:46.036Z,100131.50
2023-02-09T23:51:15.603Z,100113.53
2023-02-09T23:53:42.168Z,100122.84
2023-02-09T23:56:08.775Z,100126.31
2023-02-09T23:58:41.248Z,100079.22
